createdAt,value
2018-09-22T00:00:24.612Z,11.71
2018-09-22T00:02:24.123Z,11.62
2018-09-22T00:03:24.023Z,11.73
2018-09-22T00:05:23.974Z,11.61
2018-09-22T00:06:23.851Z,11.56
2018-09-22T00:07:24.176Z,11.54
2018-09-22T00:08:23.904Z,11.56
2018-09-22T00:09:24.094Z,11.52
2018-09-22T00:10:23.803Z,11.49
2018-09-22T00:11:25.369Z,11.55
2018-09-22T00:13:24.023Z,11.40
2018-09-22T00:14:23.693Z,11.38
2018-09-22T00:16:23.661Z,11.43
2018-09-22T00:17:23.895Z,11.36
2018-09-22T00:18:23.626Z,11.37
2018-09-22T00:19:23.602Z,11.33
2018-09-22T00:20:23.878Z,11.38
2018-09-22T00:21:23.564Z,11.45
2018-09-22T00:22:23.550Z,11.37
2018-09-22T00:23:23.578Z,11.36
2018-09-22T00:24:23.508Z,11.36
2018-09-22T00:25:23.501Z,11.37
2018-09-22T00:26:23.471Z,11.38
2018-09-22T00:27:23.816Z,11.45
2018-09-22T00:29:23.724Z,11.43
2018-09-22T00:30:23.399Z,11.41
2018-09-22T00:31:23.383Z,11.46
2018-09-22T00:32:23.454Z,11.43
2018-09-22T00:33:23.341Z,11.52
2018-09-22T00:34:23.615Z,11.54
2018-09-22T00:35:23.363Z,11.49
2018-09-22T00:37:23.450Z,11.41
2018-09-22T00:38:23.345Z,11.41
2018-09-22T00:39:23.448Z,11.43
2018-09-22T00:40:23.209Z,11.45
2018-09-22T00:41:23.543Z,11.45
2018-09-22T00:42:23.171Z,11.52
2018-09-22T00:43:23.207Z,11.58
2018-09-22T00:44:23.133Z,11.59
2018-09-22T00:45:23.110Z,11.62
2018-09-22T00:46:23.096Z,11.61
2018-09-22T00:47:23.133Z,11.59
2018-09-22T00:48:23.414Z,11.59
2018-09-22T00:49:23.047Z,11.62
2018-09-22T00:50:23.127Z,11.73
2018-09-22T00:51:23.012Z,11.69
2018-09-22T00:52:22.987Z,11.71
2018-09-22T00:54:22.961Z,11.70
2018-09-22T00:55:23.275Z,11.67
2018-09-22T00:56:22.954Z,11.67
2018-09-22T00:57:22.889Z,11.64
2018-09-22T00:58:22.867Z,11.73
2018-09-22T00:59:23.020Z,11.73
2018-09-22T01:00:22.826Z,11.73
2018-09-22T01:01:23.120Z,11.74
2018-09-22T01:02:22.899Z,11.74
2018-09-22T01:03:22.770Z,11.74
2018-09-22T01:04:22.752Z,11.69
2018-09-22T01:05:23.033Z,11.76
2018-09-22T01:06:22.720Z,11.69
2018-09-22T01:07:22.996Z,11.70
2018-09-22T01:09:22.660Z,11.67
2018-09-22T01:10:22.866Z,11.70
2018-09-22T01:11:23.023Z,11.69
2018-09-22T01:12:22.597Z,11.58
2018-09-22T01:13:22.653Z,11.66
2018-09-22T01:14:22.576Z,11.58
2018-09-22T01:15:22.709Z,11.58
2018-09-22T01:16:22.529Z,11.59
2018-09-22T01:17:22.682Z,11.62
2018-09-22T01:18:22.489Z,11.54
2018-09-22T01:19:22.778Z,11.56
2018-09-22T01:20:22.456Z,11.62
2018-09-22T01:21:22.430Z,11.52
2018-09-22T01:22:22.434Z,11.62
2018-09-22T01:23:22.476Z,11.56
2018-09-22T01:24:22.374Z,11.54
2018-09-22T01:25:22.659Z,11.58
2018-09-22T01:26:22.342Z,11.54
2018-09-22T01:27:22.383Z,11.58
2018-09-22T01:28:22.309Z,11.61
2018-09-22T01:29:22.336Z,11.62
2018-09-22T01:30:22.270Z,11.62
2018-09-22T01:31:22.546Z,11.58
2018-09-22T01:33:22.223Z,11.62
2018-09-22T01:34:22.331Z,11.64
2018-09-22T01:35:22.472Z,11.56
2018-09-22T01:36:22.149Z,11.67
2018-09-22T01:37:22.139Z,11.59
2018-09-22T01:38:22.597Z,11.59
2018-09-22T01:39:22.109Z,11.58
2018-09-22T01:40:22.085Z,11.59
2018-09-22T01:41:22.108Z,11.73
2018-09-22T01:42:22.101Z,11.61
2018-09-22T01:43:22.132Z,11.67
2018-09-22T01:44:22.004Z,11.66
2018-09-22T01:45:22.287Z,11.64
2018-09-22T01:46:21.990Z,11.61
2018-09-22T01:47:21.999Z,11.66
2018-09-22T01:48:21.928Z,11.59
2018-09-22T01:49:21.944Z,11.67
2018-09-22T01:50:22.121Z,11.58
2018-09-22T01:51:21.871Z,11.59
2018-09-22T01:52:22.186Z,11.59
2018-09-22T01:54:21.866Z,11.56
2018-09-22T01:55:21.882Z,11.58
2018-09-22T01:56:21.777Z,11.61
2018-09-22T01:57:21.756Z,11.58
2018-09-22T01:58:21.840Z,11.51
2018-09-22T02:00:22.070Z,11.51
2018-09-22T02:01:21.726Z,11.51
2018-09-22T02:02:21.671Z,11.52
2018-09-22T02:03:21.649Z,11.51
2018-09-22T02:04:21.643Z,11.52
2018-09-22T02:05:21.652Z,11.54
2018-09-22T02:06:22.193Z,11.52
2018-09-22T02:07:21.876Z,11.61
2018-09-22T02:08:21.610Z,11.58
2018-09-22T02:09:21.549Z,11.58
2018-09-22T02:10:21.525Z,11.55
2018-09-22T02:11:21.498Z,11.59
2018-09-22T02:12:21.538Z,11.64
2018-09-22T02:13:21.488Z,11.67
2018-09-22T02:14:22.100Z,11.58
2018-09-22T02:15:21.424Z,11.69
2018-09-22T02:16:21.413Z,11.77
2018-09-22T02:19:21.446Z,11.67
2018-09-22T02:20:21.430Z,11.73
2018-09-22T02:21:21.653Z,11.74
2018-09-22T02:23:26.832Z,11.76
2018-09-22T02:24:21.317Z,11.71
2018-09-22T02:27:21.496Z,11.70
2018-09-22T02:28:21.235Z,11.61
2018-09-22T02:29:21.257Z,11.77
2018-09-22T02:30:21.379Z,11.82
2018-09-22T02:31:21.191Z,11.77
2018-09-22T02:32:26.987Z,11.87
2018-09-22T02:33:21.399Z,11.76
2018-09-22T02:35:21.049Z,11.84
2018-09-22T02:36:21.078Z,11.79
2018-09-22T02:38:20.994Z,11.77
2018-09-22T02:39:21.133Z,11.80
2018-09-22T02:40:21.387Z,11.79
2018-09-22T02:41:20.974Z,11.79
2018-09-22T02:42:21.215Z,11.80
2018-09-22T02:43:20.898Z,11.79
2018-09-22T02:44:20.877Z,11.79
2018-09-22T02:46:21.666Z,11.79
2018-09-22T02:47:20.878Z,11.77
2018-09-22T02:48:20.865Z,11.80
2018-09-22T02:49:20.788Z,11.79
2018-09-22T02:50:20.993Z,11.77
2018-09-22T02:51:20.753Z,11.82
2018-09-22T02:52:21.611Z,11.82
2018-09-22T02:54:20.747Z,11.87
2018-09-22T02:55:20.693Z,11.82
2018-09-22T02:56:20.656Z,11.80
2018-09-22T02:57:20.726Z,11.88
2018-09-22T02:58:20.921Z,11.82
2018-09-22T02:59:20.601Z,11.80
2018-09-22T03:00:20.638Z,11.79
2018-09-22T03:01:20.638Z,11.76
2018-09-22T03:02:20.565Z,11.88
2018-09-22T03:04:20.814Z,11.88
2018-09-22T03:05:20.501Z,11.89
2018-09-22T03:06:20.521Z,11.91
2018-09-22T03:07:20.460Z,11.93
2018-09-22T03:08:20.485Z,11.89
2018-09-22T03:10:20.801Z,11.87
2018-09-22T03:11:20.460Z,11.95
2018-09-22T03:12:20.516Z,11.87
2018-09-22T03:13:20.339Z,11.88
2018-09-22T03:14:20.329Z,11.88
2018-09-22T03:16:20.293Z,11.91
2018-09-22T03:17:20.593Z,11.85
2018-09-22T03:18:20.655Z,11.82
2018-09-22T03:19:20.230Z,11.91
2018-09-22T03:20:20.217Z,11.88
2018-09-22T03:21:20.190Z,11.95
2018-09-22T03:23:20.460Z,11.85
2018-09-22T03:24:20.187Z,11.84
2018-09-22T03:25:20.172Z,11.88
2018-09-22T03:26:20.099Z,11.80
2018-09-22T03:27:20.142Z,11.77
2018-09-22T03:28:20.073Z,11.77
2018-09-22T03:29:20.047Z,11.80
2018-09-22T03:30:20.328Z,11.84
2018-09-22T03:31:20.011Z,11.76
2018-09-22T03:32:20.000Z,11.84
2018-09-22T03:33:20.729Z,11.79
2018-09-22T03:34:20.051Z,11.91
2018-09-22T03:35:19.972Z,11.84
2018-09-22T03:36:19.966Z,11.82
2018-09-22T03:38:20.181Z,11.87
2018-09-22T03:39:19.858Z,11.82
2018-09-22T03:40:19.855Z,11.87
2018-09-22T03:41:19.870Z,11.67
2018-09-22T03:42:19.866Z,11.73
2018-09-22T03:43:19.787Z,11.62
2018-09-22T03:44:19.767Z,11.71
2018-09-22T03:45:20.045Z,11.71
2018-09-22T03:46:19.734Z,11.61
2018-09-22T03:47:19.731Z,11.76
2018-09-22T03:48:19.745Z,11.76
2018-09-22T03:49:19.668Z,11.66
2018-09-22T03:50:19.669Z,11.71
2018-09-22T03:52:19.918Z,11.69
2018-09-22T03:53:19.695Z,11.58
2018-09-22T03:54:19.633Z,11.56
2018-09-22T03:55:19.662Z,11.54
2018-09-22T03:56:19.546Z,11.52
2018-09-22T03:57:19.851Z,11.55
2018-09-22T03:58:19.512Z,11.51
2018-09-22T03:59:19.488Z,11.58
2018-09-22T04:01:19.498Z,11.61
2018-09-22T04:02:19.534Z,11.62
2018-09-22T04:03:19.721Z,11.62
2018-09-22T04:04:19.387Z,11.59
2018-09-22T04:05:19.369Z,11.62
2018-09-22T04:06:19.356Z,11.67
2018-09-22T04:07:19.396Z,11.61
2018-09-22T04:08:19.325Z,11.64
2018-09-22T04:09:19.608Z,11.67
2018-09-22T04:10:19.281Z,11.64
2018-09-22T04:11:19.258Z,11.66
2018-09-22T04:12:19.257Z,11.69
2018-09-22T04:13:19.284Z,11.58
2018-09-22T04:14:19.218Z,11.56
2018-09-22T04:15:19.491Z,11.62
2018-09-22T04:16:19.178Z,11.61
2018-09-22T04:17:19.141Z,11.56
2018-09-22T04:18:19.124Z,11.58
2018-09-22T04:19:19.174Z,11.56
2018-09-22T04:20:19.090Z,11.54
2018-09-22T04:21:19.471Z,11.55
2018-09-22T04:22:19.146Z,11.56
2018-09-22T04:23:19.037Z,11.54
2018-09-22T04:24:19.117Z,11.55
2018-09-22T04:25:19.046Z,11.51
2018-09-22T04:26:19.003Z,11.56
2018-09-22T04:27:19.688Z,11.51
2018-09-22T04:28:18.996Z,11.51
2018-09-22T04:29:19.025Z,11.52
2018-09-22T04:30:18.903Z,11.58
2018-09-22T04:31:18.929Z,11.56
2018-09-22T04:32:18.882Z,11.64
2018-09-22T04:33:18.909Z,11.52
2018-09-22T04:34:19.124Z,11.54
2018-09-22T04:35:18.811Z,11.55
2018-09-22T04:36:18.795Z,11.56
2018-09-22T04:37:18.824Z,11.64
2018-09-22T04:38:18.756Z,11.69
2018-09-22T04:39:18.733Z,11.69
2018-09-22T04:40:18.716Z,11.69
2018-09-22T04:41:18.990Z,11.71
2018-09-22T04:42:18.678Z,11.76
2018-09-22T04:43:18.704Z,11.67
2018-09-22T04:44:18.641Z,11.67
2018-09-22T04:45:18.621Z,11.73
2018-09-22T04:46:18.601Z,11.73
2018-09-22T04:49:18.691Z,11.69
2018-09-22T04:50:18.550Z,11.73
2018-09-22T04:51:18.505Z,11.62
2018-09-22T04:52:18.534Z,11.70
2018-09-22T04:53:18.487Z,11.69
2018-09-22T04:55:18.780Z,11.74
2018-09-22T04:56:18.416Z,11.76
2018-09-22T04:57:18.398Z,11.76
2018-09-22T04:58:18.670Z,11.79
2018-09-22T04:59:18.360Z,11.67
2018-09-22T05:00:18.332Z,11.64
2018-09-22T05:01:18.377Z,11.70
2018-09-22T05:02:18.595Z,11.71
2018-09-22T05:03:18.367Z,11.73
2018-09-22T05:04:18.272Z,11.71
2018-09-22T05:05:18.236Z,11.74
2018-09-22T05:06:18.595Z,11.76
2018-09-22T05:07:18.465Z,11.76
2018-09-22T05:08:18.184Z,11.74
2018-09-22T05:09:18.473Z,11.79
2018-09-22T05:10:18.152Z,11.73
2018-09-22T05:12:18.111Z,11.73
2018-09-22T05:13:18.292Z,11.76
2018-09-22T05:14:18.211Z,11.73
2018-09-22T05:15:18.056Z,11.69
2018-09-22T05:16:18.342Z,11.67
2018-09-22T05:17:18.020Z,11.76
2018-09-22T05:18:17.997Z,11.70
2018-09-22T05:19:18.065Z,11.71
2018-09-22T05:20:18.007Z,11.77
2018-09-22T05:21:17.948Z,11.74
2018-09-22T05:22:18.377Z,11.61
2018-09-22T05:23:17.932Z,11.62
2018-09-22T05:24:17.935Z,11.56
2018-09-22T05:25:17.928Z,11.58
2018-09-22T05:26:17.860Z,11.73
2018-09-22T05:27:17.832Z,11.67
2018-09-22T05:28:18.208Z,11.73
2018-09-22T05:30:17.773Z,11.58
2018-09-22T05:31:17.902Z,11.62
2018-09-22T05:32:17.737Z,11.58
2018-09-22T05:33:17.744Z,11.58
2018-09-22T05:34:17.995Z,11.56
2018-09-22T05:35:17.677Z,11.64
2018-09-22T05:36:17.659Z,11.61
2018-09-22T05:37:17.741Z,11.74
2018-09-22T05:38:18.043Z,11.74
2018-09-22T05:39:17.621Z,11.70
2018-09-22T05:40:17.885Z,11.70
2018-09-22T05:41:17.612Z,11.59
2018-09-22T05:42:17.549Z,11.58
2018-09-22T05:43:17.639Z,11.56
2018-09-22T05:44:17.543Z,11.54
2018-09-22T05:45:17.493Z,11.56
2018-09-22T05:46:17.772Z,11.58
2018-09-22T05:47:17.461Z,11.66
2018-09-22T05:48:17.443Z,11.62
2018-09-22T05:49:17.468Z,11.66
2018-09-22T05:50:17.660Z,11.58
2018-09-22T05:51:17.447Z,11.56
2018-09-22T05:52:17.903Z,11.61
2018-09-22T05:53:17.644Z,11.73
2018-09-22T05:54:17.317Z,11.71
2018-09-22T05:55:17.470Z,11.71
2018-09-22T05:56:17.280Z,11.74
2018-09-22T05:57:17.297Z,11.73
2018-09-22T05:58:17.312Z,11.71
2018-09-22T05:59:17.529Z,11.76
2018-09-22T06:00:17.329Z,11.74
2018-09-22T06:01:17.495Z,11.73
2018-09-22T06:02:17.266Z,11.74
2018-09-22T06:03:17.149Z,11.77
2018-09-22T06:04:17.133Z,11.82
2018-09-22T06:05:17.158Z,11.84
2018-09-22T06:06:17.399Z,11.77
2018-09-22T06:07:17.131Z,11.80
2018-09-22T06:08:17.057Z,11.87
2018-09-22T06:09:17.034Z,11.93
2018-09-22T06:10:17.229Z,11.89
2018-09-22T06:11:16.999Z,11.89
2018-09-22T06:12:17.041Z,11.84
2018-09-22T06:14:17.407Z,11.95
2018-09-22T06:15:16.927Z,12.04
2018-09-22T06:16:17.018Z,11.97
2018-09-22T06:17:16.913Z,11.99
2018-09-22T06:18:17.149Z,12.03
2018-09-22T06:19:16.855Z,12.08
2018-09-22T06:20:16.942Z,12.03
2018-09-22T06:21:17.117Z,12.13
2018-09-22T06:22:16.969Z,12.14
2018-09-22T06:23:16.974Z,12.11
2018-09-22T06:24:16.762Z,12.15
2018-09-22T06:25:17.451Z,12.14
2018-09-22T06:27:16.803Z,12.15
2018-09-22T06:28:16.976Z,12.25
2018-09-22T06:29:16.674Z,12.25
2018-09-22T06:30:16.653Z,12.26
2018-09-22T06:32:16.709Z,12.30
2018-09-22T06:33:16.634Z,12.38
2018-09-22T06:34:17.059Z,12.29
2018-09-22T06:35:17.214Z,12.46
2018-09-22T06:36:16.545Z,12.48
2018-09-22T06:37:16.559Z,12.48
2018-09-22T06:38:16.659Z,12.44
2018-09-22T06:39:16.476Z,12.55
2018-09-22T06:40:16.469Z,12.51
2018-09-22T06:41:16.445Z,12.50
2018-09-22T06:42:16.731Z,12.63
2018-09-22T06:44:16.695Z,12.63
2018-09-22T06:45:16.463Z,12.62
2018-09-22T06:46:16.460Z,12.68
2018-09-22T06:47:16.785Z,12.76
2018-09-22T06:48:16.628Z,12.84
2018-09-22T06:49:16.294Z,12.84
2018-09-22T06:51:16.319Z,13.05
2018-09-22T06:52:16.250Z,13.04
2018-09-22T06:54:16.527Z,13.20
2018-09-22T06:55:16.183Z,13.11
2018-09-22T06:56:16.174Z,13.14
2018-09-22T06:57:16.218Z,13.14
2018-09-22T06:58:16.136Z,13.11
2018-09-22T06:59:16.128Z,13.11
2018-09-22T07:00:16.395Z,13.16
2018-09-22T07:01:16.073Z,13.08
2018-09-22T07:02:21.523Z,13.09
2018-09-22T07:03:16.922Z,13.04
2018-09-22T07:04:16.297Z,13.11
2018-09-22T07:05:16.004Z,13.19
2018-09-22T07:06:16.371Z,13.20
2018-09-22T07:08:15.952Z,13.36
2018-09-22T07:09:15.987Z,13.38
2018-09-22T07:10:15.929Z,13.43
2018-09-22T07:11:15.905Z,13.43
2018-09-22T07:12:16.229Z,13.46
2018-09-22T07:13:16.049Z,13.45
2018-09-22T07:14:15.864Z,13.47
2018-09-22T07:16:15.810Z,13.57
2018-09-22T07:17:15.976Z,13.42
2018-09-22T07:18:16.140Z,13.57
2018-09-22T07:19:15.760Z,13.51
2018-09-22T07:21:15.786Z,13.67
2018-09-22T07:23:15.695Z,13.55
2018-09-22T07:24:15.915Z,13.60
2018-09-22T07:25:16.029Z,13.63
2018-09-22T07:26:15.895Z,13.65
2018-09-22T07:27:15.675Z,13.78
2018-09-22T07:28:15.615Z,13.60
2018-09-22T07:29:15.684Z,13.72
2018-09-22T07:30:15.922Z,13.86
2018-09-22T07:31:15.877Z,13.94
2018-09-22T07:32:15.589Z,14.01
2018-09-22T07:33:15.630Z,14.12
2018-09-22T07:34:15.523Z,14.16
2018-09-22T07:36:15.488Z,14.09
2018-09-22T07:37:15.492Z,13.93
2018-09-22T07:38:15.795Z,14.11
2018-09-22T07:39:15.712Z,14.15
2018-09-22T07:40:15.463Z,14.30
2018-09-22T07:41:15.798Z,14.26
2018-09-22T07:42:15.507Z,14.31
2018-09-22T07:44:15.669Z,14.46
2018-09-22T07:45:15.512Z,14.26
2018-09-22T07:47:15.486Z,14.37
2018-09-22T07:48:15.569Z,14.46
2018-09-22T07:49:15.800Z,14.59
2018-09-22T07:50:15.370Z,14.64
2018-09-22T07:51:15.626Z,14.67
2018-09-22T07:52:15.752Z,14.61
2018-09-22T07:53:15.295Z,14.66
2018-09-22T07:54:15.223Z,14.67
2018-09-22T07:56:15.136Z,14.95
2018-09-22T07:57:15.227Z,14.89
2018-09-22T07:59:15.111Z,14.56
2018-09-22T08:00:15.449Z,14.59
2018-09-22T08:01:15.052Z,14.64
2018-09-22T08:02:15.125Z,14.55
2018-09-22T08:03:15.715Z,14.48
2018-09-22T08:04:15.609Z,14.41
2018-09-22T08:05:15.303Z,14.52
2018-09-22T08:06:15.042Z,14.78
2018-09-22T08:07:15.229Z,14.70
2018-09-22T08:08:15.655Z,14.74
2018-09-22T08:09:15.003Z,14.77
2018-09-22T08:10:15.742Z,14.87
2018-09-22T08:11:15.713Z,15.08
2018-09-22T08:12:15.906Z,15.30
2018-09-22T08:13:14.870Z,15.20
2018-09-22T08:15:14.927Z,15.30
2018-09-22T08:16:14.957Z,15.25
2018-09-22T08:17:15.078Z,15.05
2018-09-22T08:18:15.613Z,15.29
2018-09-22T08:19:15.130Z,15.41
2018-09-22T08:20:14.865Z,15.26
2018-09-22T08:21:14.838Z,15.33
2018-09-22T08:23:15.046Z,15.73
2018-09-22T08:24:15.175Z,15.60
2018-09-22T08:25:15.411Z,15.69
2018-09-22T08:26:14.883Z,15.38
2018-09-22T08:27:15.729Z,15.38
2018-09-22T08:28:15.018Z,15.26
2018-09-22T08:29:14.632Z,15.22
2018-09-22T08:30:14.971Z,15.23
2018-09-22T08:32:14.620Z,15.29
2018-09-22T08:33:14.612Z,15.40
2018-09-22T08:34:14.558Z,15.69
2018-09-22T08:35:14.912Z,15.63
2018-09-22T08:36:14.943Z,15.52
2018-09-22T08:37:15.308Z,15.30
2018-09-22T08:38:14.507Z,15.30
2018-09-22T08:39:14.605Z,15.20
2018-09-22T08:40:14.504Z,15.30
2018-09-22T08:41:14.511Z,15.27
2018-09-22T08:42:14.740Z,15.23
2018-09-22T08:43:14.886Z,15.44
2018-09-22T08:44:15.635Z,15.50
2018-09-22T08:45:14.450Z,15.60
2018-09-22T08:46:14.362Z,15.36
2018-09-22T08:47:14.431Z,15.70
2018-09-22T08:48:14.958Z,15.87
2018-09-22T08:49:14.637Z,16.02
2018-09-22T08:50:14.314Z,15.83
2018-09-22T08:51:14.411Z,15.98
2018-09-22T08:52:14.283Z,15.84
2018-09-22T08:54:14.256Z,16.14
2018-09-22T08:55:14.244Z,15.88
2018-09-22T08:56:14.527Z,15.63
2018-09-22T08:57:14.277Z,15.43
2018-09-22T08:58:14.201Z,15.29
2018-09-22T08:59:14.190Z,15.26
2018-09-22T09:01:14.165Z,15.63
2018-09-22T09:02:14.440Z,15.63
2018-09-22T09:03:14.205Z,15.51
2018-09-22T09:04:14.205Z,15.77
2018-09-22T09:05:14.106Z,16.05
2018-09-22T09:06:14.078Z,16.16
2018-09-22T09:07:14.077Z,16.13
2018-09-22T09:08:14.153Z,16.06
2018-09-22T09:09:14.393Z,16.28
2018-09-22T09:10:14.028Z,16.58
2018-09-22T09:11:14.042Z,16.74
2018-09-22T09:12:14.236Z,16.43
2018-09-22T09:13:14.024Z,16.65
2018-09-22T09:14:13.988Z,16.54
2018-09-22T09:15:14.305Z,16.29
2018-09-22T09:16:13.954Z,16.06
2018-09-22T09:17:14.084Z,16.62
2018-09-22T09:18:13.929Z,16.64
2018-09-22T09:19:13.921Z,16.28
2018-09-22T09:22:14.210Z,16.55
2018-09-22T09:23:13.846Z,16.64
2018-09-22T09:24:13.839Z,16.83
2018-09-22T09:25:13.836Z,16.77
2018-09-22T09:26:13.806Z,16.95
2018-09-22T09:27:13.839Z,16.97
2018-09-22T09:28:13.831Z,17.01
2018-09-22T09:29:14.082Z,17.31
2018-09-22T09:30:13.741Z,16.99
2018-09-22T09:31:14.051Z,17.30
2018-09-22T09:32:13.744Z,17.06
2018-09-22T09:33:13.714Z,17.20
2018-09-22T09:34:13.846Z,17.16
2018-09-22T09:35:13.693Z,17.01
2018-09-22T09:36:14.024Z,16.88
2018-09-22T09:37:13.693Z,16.65
2018-09-22T09:38:13.732Z,16.54
2018-09-22T09:39:13.642Z,16.79
2018-09-22T09:40:13.694Z,16.92
2018-09-22T09:42:13.590Z,16.92
2018-09-22T09:43:13.949Z,17.07
2018-09-22T09:44:13.611Z,16.82
2018-09-22T09:45:13.555Z,16.61
2018-09-22T09:46:13.596Z,16.76
2018-09-22T09:47:13.574Z,16.97
2018-09-22T09:48:14.099Z,17.14
2018-09-22T09:50:14.063Z,17.93
2018-09-22T09:51:14.329Z,17.45
2018-09-22T09:52:14.024Z,17.56
2018-09-22T09:53:13.652Z,17.49
2018-09-22T09:54:13.455Z,17.46
2018-09-22T09:57:13.782Z,17.93
2018-09-22T09:58:13.789Z,18.09
2018-09-22T10:00:13.468Z,17.99
2018-09-22T10:01:13.365Z,18.09
2018-09-22T10:02:13.643Z,17.72
2018-09-22T10:03:13.391Z,17.76
2018-09-22T10:04:13.401Z,17.49
2018-09-22T10:05:13.371Z,17.43
2018-09-22T10:07:13.443Z,17.38
2018-09-22T10:08:13.687Z,17.59
2018-09-22T10:09:13.270Z,17.20
2018-09-22T10:10:13.310Z,17.01
2018-09-22T10:11:13.235Z,17.02
2018-09-22T10:12:13.239Z,17.02
2018-09-22T10:13:13.246Z,17.22
2018-09-22T10:14:13.529Z,17.49
2018-09-22T10:15:13.237Z,17.75
2018-09-22T10:16:13.231Z,17.83
2018-09-22T10:17:13.175Z,17.57
2018-09-22T10:18:13.197Z,17.46
2018-09-22T10:20:13.168Z,17.63
2018-09-22T10:21:13.149Z,18.18
2018-09-22T10:22:13.164Z,18.36
2018-09-22T10:23:13.200Z,18.28
2018-09-22T10:24:13.104Z,17.91
2018-09-22T10:25:13.229Z,17.94
2018-09-22T10:26:13.373Z,18.13
2018-09-22T10:27:13.047Z,18.15
2018-09-22T10:28:13.097Z,18.17
2018-09-22T10:29:13.342Z,17.59
2018-09-22T10:30:13.031Z,17.88
2018-09-22T10:31:13.013Z,18.11
2018-09-22T10:32:13.050Z,17.88
2018-09-22T10:33:13.292Z,17.68
2018-09-22T10:34:13.455Z,18.03
2018-09-22T10:35:13.002Z,17.79
2018-09-22T10:36:13.217Z,17.43
2018-09-22T10:37:12.998Z,17.22
2018-09-22T10:38:12.984Z,17.09
2018-09-22T10:39:12.933Z,17.71
2018-09-22T10:42:13.029Z,18.06
2018-09-22T10:43:12.880Z,18.48
2018-09-22T10:44:12.909Z,18.17
2018-09-22T10:45:12.958Z,17.71
2018-09-22T10:46:12.891Z,17.49
2018-09-22T10:47:13.329Z,17.83
2018-09-22T10:48:12.828Z,18.15
2018-09-22T10:49:12.815Z,18.31
2018-09-22T10:50:12.806Z,18.15
2018-09-22T10:51:12.803Z,18.15
2018-09-22T10:52:12.933Z,18.12
2018-09-22T10:53:12.763Z,18.26
2018-09-22T10:54:13.069Z,18.15
2018-09-22T10:55:12.763Z,17.93
2018-09-22T10:56:14.441Z,17.73
2018-09-22T10:57:12.729Z,17.93
2018-09-22T10:58:12.769Z,18.13
2018-09-22T10:59:12.715Z,18.13
2018-09-22T11:00:13.064Z,18.09
2018-09-22T11:01:12.689Z,18.13
2018-09-22T11:02:12.806Z,18.01
2018-09-22T11:03:12.743Z,18.17
2018-09-22T11:04:12.712Z,18.21
2018-09-22T11:05:12.697Z,18.30
2018-09-22T11:06:12.678Z,18.41
2018-09-22T11:07:12.946Z,18.48
2018-09-22T11:08:12.618Z,18.31
2018-09-22T11:09:12.970Z,18.12
2018-09-22T11:10:12.924Z,18.05
2018-09-22T11:11:13.077Z,17.84
2018-09-22T11:12:12.620Z,17.59
2018-09-22T11:14:12.558Z,17.38
2018-09-22T11:15:12.579Z,17.52
2018-09-22T11:16:12.588Z,17.57
2018-09-22T11:17:12.533Z,17.59
2018-09-22T11:18:12.502Z,17.63
2018-09-22T11:19:12.787Z,17.88
2018-09-22T11:20:12.625Z,18.09
2018-09-22T11:22:12.654Z,18.31
2018-09-22T11:23:12.505Z,18.39
2018-09-22T11:24:12.455Z,18.49
2018-09-22T11:25:12.816Z,18.43
2018-09-22T11:26:12.424Z,18.67
2018-09-22T11:28:12.473Z,18.60
2018-09-22T11:29:12.989Z,18.68
2018-09-22T11:31:13.341Z,18.15
2018-09-22T11:32:12.355Z,17.71
2018-09-22T11:33:12.342Z,17.56
2018-09-22T11:34:12.476Z,17.71
2018-09-22T11:35:12.816Z,17.52
2018-09-22T11:36:12.334Z,17.62
2018-09-22T11:37:12.587Z,18.23
2018-09-22T11:38:12.361Z,18.68
2018-09-22T11:39:12.284Z,18.68
2018-09-22T11:41:12.297Z,19.07
2018-09-22T11:42:12.299Z,18.70
2018-09-22T11:43:12.630Z,19.04
2018-09-22T11:44:12.315Z,18.34
2018-09-22T11:45:12.200Z,18.85
2018-09-22T11:46:12.343Z,19.08
2018-09-22T11:47:12.644Z,18.56
2018-09-22T11:49:12.464Z,17.96
2018-09-22T11:50:12.211Z,17.79
2018-09-22T11:51:12.173Z,17.72
2018-09-22T11:52:12.322Z,17.62
2018-09-22T11:53:12.183Z,17.39
2018-09-22T11:54:12.139Z,17.47
2018-09-22T11:55:12.090Z,17.46
2018-09-22T11:56:12.432Z,17.49
2018-09-22T11:57:12.199Z,17.46
2018-09-22T11:58:12.068Z,17.39
2018-09-22T11:59:12.138Z,17.24
2018-09-22T12:00:12.042Z,17.27
2018-09-22T12:01:12.082Z,17.24
2018-09-22T12:03:12.025Z,17.22
2018-09-22T12:04:12.002Z,17.30
2018-09-22T12:05:12.024Z,17.22
2018-09-22T12:06:12.247Z,17.24
2018-09-22T12:07:11.973Z,17.31
2018-09-22T12:08:12.240Z,17.31
2018-09-22T12:09:11.938Z,17.45
2018-09-22T12:10:11.912Z,17.49
2018-09-22T12:11:11.962Z,17.37
2018-09-22T12:12:11.977Z,17.22
2018-09-22T12:14:12.290Z,17.25
2018-09-22T12:15:11.873Z,17.20
2018-09-22T12:16:11.904Z,17.43
2018-09-22T12:17:11.881Z,17.46
2018-09-22T12:18:11.807Z,17.57
2018-09-22T12:19:11.794Z,17.56
2018-09-22T12:20:11.810Z,17.39
2018-09-22T12:21:12.195Z,17.49
2018-09-22T12:23:12.103Z,17.41
2018-09-22T12:24:11.935Z,17.47
2018-09-22T12:25:11.740Z,17.52
2018-09-22T12:26:11.721Z,17.57
2018-09-22T12:27:11.761Z,17.69
2018-09-22T12:28:12.483Z,17.79
2018-09-22T12:29:11.714Z,17.88
2018-09-22T12:31:11.642Z,17.96
2018-09-22T12:32:11.635Z,17.87
2018-09-22T12:33:11.609Z,17.73
2018-09-22T12:34:11.614Z,17.72
2018-09-22T12:35:11.945Z,17.79
2018-09-22T12:36:11.584Z,17.94
2018-09-22T12:37:11.597Z,18.03
2018-09-22T12:38:11.678Z,18.09
2018-09-22T12:39:11.637Z,17.96
2018-09-22T12:41:12.030Z,17.86
2018-09-22T12:42:11.803Z,17.72
2018-09-22T12:43:11.527Z,17.65
2018-09-22T12:45:11.522Z,17.54
2018-09-22T12:46:11.651Z,17.62
2018-09-22T12:47:11.742Z,17.57
2018-09-22T12:48:11.439Z,17.71
2018-09-22T12:49:11.713Z,17.79
2018-09-22T12:50:11.514Z,17.76
2018-09-22T12:51:11.467Z,17.88
2018-09-22T12:52:11.523Z,17.78
2018-09-22T12:53:11.591Z,17.76
2018-09-22T12:54:11.356Z,17.72
2018-09-22T12:55:11.567Z,17.73
2018-09-22T12:56:11.610Z,17.62
2018-09-22T12:57:11.500Z,17.68
2018-09-22T12:58:11.854Z,17.63
2018-09-22T12:59:11.660Z,17.66
2018-09-22T13:00:11.539Z,17.66
2018-09-22T13:03:11.263Z,17.62
2018-09-22T13:04:11.235Z,17.73
2018-09-22T13:05:11.326Z,17.79
2018-09-22T13:06:11.247Z,17.72
2018-09-22T13:07:11.180Z,17.65
2018-09-22T13:09:11.163Z,17.76
2018-09-22T13:10:11.194Z,17.63
2018-09-22T13:11:11.222Z,17.68
2018-09-22T13:12:17.378Z,17.57
2018-09-22T13:13:11.081Z,17.47
2018-09-22T13:14:11.380Z,17.46
2018-09-22T13:15:11.063Z,17.57
2018-09-22T13:16:11.083Z,17.59
2018-09-22T13:17:11.114Z,17.62
2018-09-22T13:18:11.031Z,17.72
2018-09-22T13:19:11.001Z,17.87
2018-09-22T13:20:11.325Z,17.78
2018-09-22T13:21:10.978Z,17.84
2018-09-22T13:22:10.989Z,17.78
2018-09-22T13:23:11.019Z,17.79
2018-09-22T13:24:10.941Z,17.86
2018-09-22T13:25:10.932Z,17.94
2018-09-22T13:26:11.234Z,17.96
2018-09-22T13:27:10.954Z,17.81
2018-09-22T13:28:10.941Z,17.76
2018-09-22T13:29:10.963Z,17.69
2018-09-22T13:30:10.864Z,17.68
2018-09-22T13:31:10.846Z,17.69
2018-09-22T13:32:11.914Z,17.71
2018-09-22T13:33:10.828Z,17.63
2018-09-22T13:34:10.808Z,17.59
2018-09-22T13:35:10.938Z,17.39
2018-09-22T13:36:10.774Z,17.41
2018-09-22T13:38:11.059Z,17.41
2018-09-22T13:39:11.449Z,17.32
2018-09-22T13:40:10.753Z,17.19
2018-09-22T13:41:10.774Z,17.24
2018-09-22T13:42:10.852Z,17.16
2018-09-22T13:43:10.998Z,17.10
2018-09-22T13:44:11.125Z,17.06
2018-09-22T13:45:10.689Z,17.02
2018-09-22T13:47:10.687Z,17.04
2018-09-22T13:48:10.971Z,17.02
2018-09-22T13:49:10.614Z,16.97
2018-09-22T13:50:10.899Z,16.97
2018-09-22T13:51:10.615Z,16.59
2018-09-22T13:52:10.566Z,16.51
2018-09-22T13:53:10.601Z,16.42
2018-09-22T13:55:10.573Z,16.28
2018-09-22T13:56:10.540Z,16.29
2018-09-22T13:57:10.823Z,16.28
2018-09-22T13:58:10.480Z,16.42
2018-09-22T13:59:10.531Z,16.44
2018-09-22T14:00:10.452Z,16.51
2018-09-22T14:02:10.434Z,16.42
2018-09-22T14:03:10.407Z,16.44
2018-09-22T14:04:11.102Z,16.42
2018-09-22T14:05:10.450Z,16.47
2018-09-22T14:06:10.370Z,16.57
2018-09-22T14:08:10.382Z,16.55
2018-09-22T14:10:10.706Z,16.58
2018-09-22T14:11:10.398Z,16.49
2018-09-22T14:12:11.206Z,16.51
2018-09-22T14:13:10.253Z,16.47
2018-09-22T14:14:10.297Z,16.47
2018-09-22T14:15:10.268Z,16.54
2018-09-22T14:16:10.617Z,16.39